Time;durP1;ratioP1;P1;durP2;ratioP2;P2;SDS_P1;SDS_P2;PMS_P1;PMS_P2;Temp;Humidity;BMP_temperature;BMP_pressure;BME280_temperature;BME280_humidity;BME280_pressure;Samples;Min_cycle;Max_cycle;Signal;HPM_P1;HPM_P2
2024/02/12 00:00:11;;;;;;;5.80;3.40;;;;;;;10.38;94.16;99077.00;4948059;28;97637;-71
2024/02/12 00:02:39;;;;;;;4.78;3.70;;;;;;;10.56;93.84;99076.84;4950094;28;98626;-71
2024/02/12 00:05:06;;;;;;;4.10;3.70;;;;;;;10.62;94.02;99079.94;4949594;28;96881;-70
2024/02/12 00:07:33;;;;;;;3.85;3.40;;;;;;;10.65;93.29;99082.38;4951837;28;99056;-70
2024/02/12 00:10:05;;;;;;;4.50;3.25;;;;;;;10.80;92.85;99080.59;4950523;28;100834;-70
2024/02/12 00:12:31;;;;;;;3.75;3.10;;;;;;;10.54;93.38;99079.56;4949940;28;96850;-70
2024/02/12 00:14:59;;;;;;;3.80;2.92;;;;;;;10.47;93.66;99080.88;4948520;28;97186;-71
2024/02/12 00:17:26;;;;;;;3.80;3.00;;;;;;;10.29;94.79;99080.22;4950107;28;100044;-69
2024/02/12 00:19:52;;;;;;;4.30;3.13;;;;;;;10.45;95.22;99085.41;4948227;28;99389;-68
2024/02/12 00:22:20;;;;;;;3.38;3.08;;;;;;;10.76;93.04;99089.66;4949288;28;97083;-71
2024/02/12 00:24:47;;;;;;;2.95;2.65;;;;;;;10.46;95.02;99095.00;4947920;28;96995;-71
2024/02/12 00:27:16;;;;;;;4.00;3.13;;;;;;;10.51;94.13;99089.44;4947265;28;99411;-72
2024/02/12 00:29:42;;;;;;;3.75;3.05;;;;;;;10.59;93.13;99103.03;4937991;28;99193;-72
2024/02/12 00:32:10;;;;;;;4.50;3.33;;;;;;;10.84;92.72;99092.66;4947466;28;96786;-71
2024/02/12 00:34:37;;;;;;;3.35;2.30;;;;;;;10.23;94.86;99103.50;4946249;28;99183;-70
2024/02/12 00:37:05;;;;;;;2.30;2.10;;;;;;;10.12;96.84;99092.66;4946474;28;99178;-70
2024/02/12 00:39:31;;;;;;;3.75;2.65;;;;;;;10.30;95.08;99096.91;4946948;28;98925;-71
2024/02/12 00:42:05;;;;;;;2.40;2.20;;;;;;;10.33;95.49;99101.97;4946035;28;97252;-72
2024/02/12 00:44:37;;;;;;;3.33;2.42;;;;;;;10.63;94.35;99104.56;4944696;28;97602;-73
2024/02/12 00:47:04;;;;;;;4.88;2.70;;;;;;;10.85;93.32;99110.19;4941962;28;100748;-73
2024/02/12 00:49:31;;;;;;;3.53;2.50;;;;;;;10.83;92.79;99106.78;4946487;28;100723;-72
2024/02/12 00:52:02;;;;;;;1.98;1.77;;;;;;;10.42;93.27;99111.16;4949043;28;96834;-71
2024/02/12 00:54:29;;;;;;;2.20;2.00;;;;;;;10.28;95.83;99109.34;4946576;28;97363;-71
2024/02/12 00:56:57;;;;;;;2.65;2.20;;;;;;;10.19;96.53;99113.38;4947087;28;102146;-71
2024/02/12 00:59:24;;;;;;;4.00;2.28;;;;;;;10.30;95.91;99110.97;4948177;28;99042;-71
2024/02/12 01:01:53;;;;;;;2.30;2.10;;;;;;;10.44;95.44;99109.25;4941763;28;98386;-72
2024/02/12 01:04:20;;;;;;;3.05;2.00;;;;;;;10.59;94.99;99114.44;4946348;28;97222;-71
2024/02/12 01:06:46;;;;;;;3.90;2.38;;;;;;;10.35;95.44;99114.16;4946383;28;98766;-70
2024/02/12 01:09:13;;;;;;;2.47;2.20;;;;;;;10.13;96.71;99116.34;4944531;28;99058;-70
2024/02/12 01:11:40;;;;;;;2.58;2.30;;;;;;;10.31;96.01;99111.78;4945831;28;97449;-72
2024/02/12 01:14:07;;;;;;;3.08;2.10;;;;;;;10.13;96.77;99107.56;4945828;28;97220;-71
2024/02/12 01:16:34;;;;;;;2.42;2.08;;;;;;;10.39;94.81;99113.03;4947162;28;99701;-71
2024/02/12 01:19:03;;;;;;;2.42;2.00;;;;;;;10.27;96.21;99112.91;4936400;28;99181;-72
2024/02/12 01:21:33;;;;;;;2.58;2.28;;;;;;;10.52;94.65;99117.56;4945739;28;96794;-72
2024/02/12 01:24:00;;;;;;;2.42;2.17;;;;;;;10.48;94.45;99116.91;4946509;28;96880;-70
2024/02/12 01:26:27;;;;;;;2.00;1.80;;;;;;;10.83;93.16;99121.81;4944907;28;99974;-72
2024/02/12 01:28:54;;;;;;;2.35;2.15;;;;;;;10.67;92.60;99114.84;4944288;28;97700;-72
2024/02/12 01:31:21;;;;;;;2.53;1.98;;;;;;;10.17;95.88;99111.78;4945304;28;96788;-73
2024/02/12 01:33:47;;;;;;;3.40;2.40;;;;;;;10.14;96.01;99117.19;4943470;28;97143;-72
2024/02/12 01:36:16;;;;;;;2.47;2.15;;;;;;;10.12;97.27;99111.16;4939869;28;101563;-73
2024/02/12 01:38:44;;;;;;;2.45;1.88;;;;;;;10.00;97.38;99116.22;4940422;28;98927;-72
2024/02/12 01:41:11;;;;;;;2.78;2.00;;;;;;;10.41;96.10;99105.03;4946668;28;96882;-72
2024/02/12 01:43:41;;;;;;;2.90;2.42;;;;;;;10.68;93.85;99116.53;4946162;28;98309;-71
2024/02/12 01:46:08;;;;;;;3.17;2.75;;;;;;;10.53;93.99;99114.84;4943276;28;98864;-71
2024/02/12 01:48:35;;;;;;;3.80;2.53;;;;;;;10.54;94.10;99127.09;4943290;28;98056;-71
2024/02/12 01:51:06;;;;;;;2.85;2.00;;;;;;;10.46;94.65;99124.06;4946473;28;96903;-70
2024/02/12 01:53:35;;;;;;;2.58;2.38;;;;;;;10.40;94.94;99121.81;4943732;28;99304;-71
2024/02/12 01:56:02;;;;;;;3.60;2.47;;;;;;;10.20;95.11;99114.22;4947015;28;98218;-71
2024/02/12 01:58:30;;;;;;;3.00;2.47;;;;;;;10.24;96.07;99123.69;4946793;28;98828;-71
2024/02/12 02:00:57;;;;;;;2.97;2.42;;;;;;;10.25;95.96;99123.56;4947257;28;97198;-71
2024/02/12 02:03:25;;;;;;;3.20;2.70;;;;;;;10.27;95.70;99120.84;4948755;28;97438;-71
2024/02/12 02:05:52;;;;;;;3.97;2.58;;;;;;;10.25;96.45;99125.34;4946439;28;98864;-71
2024/02/12 02:08:19;;;;;;;2.83;2.53;;;;;;;10.20;96.23;99130.91;4950800;28;99250;-71
2024/02/12 02:10:48;;;;;;;3.13;2.60;;;;;;;10.23;95.78;99122.81;4943653;28;97885;-70
2024/02/12 02:13:15;;;;;;;4.32;2.58;;;;;;;9.82;98.82;99127.84;4947546;28;97313;-70
2024/02/12 02:15:42;;;;;;;3.28;2.58;;;;;;;9.94;98.38;99121.84;4947638;28;98623;-71
2024/02/12 02:18:08;;;;;;;3.95;3.17;;;;;;;10.03;98.46;99125.75;4943357;28;98782;-71
2024/02/12 02:20:36;;;;;;;3.42;2.70;;;;;;;10.21;97.16;99123.84;4947157;28;97165;-71
2024/02/12 02:23:04;;;;;;;3.60;2.85;;;;;;;10.16;96.78;99129.38;4947057;28;97207;-71
2024/02/12 02:25:34;;;;;;;3.25;2.80;;;;;;;9.99;97.35;99130.34;4945311;28;98996;-71
2024/02/12 02:28:01;;;;;;;3.08;2.78;;;;;;;10.02;97.64;99131.13;4945337;28;98736;-71
2024/02/12 02:30:27;;;;;;;3.38;3.03;;;;;;;9.85;98.72;99127.66;4943270;28;100729;-71
2024/02/12 02:32:54;;;;;;;3.95;3.53;;;;;;;9.81;98.80;99133.22;4944356;28;97752;-71
2024/02/12 02:35:20;;;;;;;3.67;3.25;;;;;;;10.04;98.56;99138.03;4943925;28;99376;-71
2024/02/12 02:37:47;;;;;;;3.55;3.03;;;;;;;10.07;97.67;99142.25;4944243;28;99188;-71
2024/02/12 02:40:13;;;;;;;4.03;3.25;;;;;;;10.36;96.59;99144.06;4945696;28;97295;-71
2024/02/12 02:42:41;;;;;;;5.72;3.67;;;;;;;10.39;95.68;99142.06;4944451;28;99001;-71
2024/02/12 02:45:08;;;;;;;4.38;3.65;;;;;;;10.72;94.68;99146.25;4945764;28;99409;-71
2024/02/12 02:47:36;;;;;;;5.05;3.90;;;;;;;10.91;93.40;99140.69;4941801;28;98826;-71
2024/02/12 02:50:03;;;;;;;6.97;4.68;;;;;;;11.09;92.05;99147.47;4945210;28;96902;-71
2024/02/12 02:52:29;;;;;;;8.75;5.00;;;;;;;10.83;92.14;99149.06;4945295;28;96787;-71
2024/02/12 02:54:55;;;;;;;7.57;4.95;;;;;;;10.75;92.99;99148.72;4948707;28;98856;-70
2024/02/12 02:57:22;;;;;;;6.78;4.60;;;;;;;10.98;92.26;99155.22;4946238;28;98106;-70
2024/02/12 02:59:50;;;;;;;7.72;5.00;;;;;;;10.83;92.33;99145.59;4948429;28;97741;-70
2024/02/12 03:02:16;;;;;;;6.18;4.93;;;;;;;10.87;93.66;99152.38;4948807;28;96747;-70
2024/02/12 03:04:42;;;;;;;11.23;5.78;;;;;;;10.91;92.52;99151.25;4947035;28;99306;-71
2024/02/12 03:07:10;;;;;;;8.00;5.70;;;;;;;11.02;91.29;99151.44;4939740;28;98713;-70
2024/02/12 03:09:36;;;;;;;6.60;4.93;;;;;;;10.81;92.86;99158.06;4943667;28;98737;-70
2024/02/12 03:12:03;;;;;;;8.52;5.05;;;;;;;10.76;93.33;99156.53;4945142;28;98981;-70
2024/02/12 03:14:30;;;;;;;8.02;5.82;;;;;;;10.96;93.32;99160.59;4943404;28;97744;-71
2024/02/12 03:16:57;;;;;;;8.77;5.60;;;;;;;11.18;91.43;99155.66;4940827;28;98955;-70
2024/02/12 03:19:24;;;;;;;8.60;5.90;;;;;;;11.45;90.33;99162.78;4940435;28;99848;-71
2024/02/12 03:21:51;;;;;;;7.28;5.13;;;;;;;11.35;90.52;99161.69;4944869;28;97175;-71
2024/02/12 03:24:19;;;;;;;8.52;6.70;;;;;;;11.19;92.50;99164.44;4938394;28;98792;-71
2024/02/12 03:26:46;;;;;;;8.52;6.10;;;;;;;11.25;92.21;99158.78;4941019;28;99021;-71
2024/02/12 03:29:13;;;;;;;8.38;6.47;;;;;;;11.12;92.06;99165.78;4946489;28;96811;-70
2024/02/12 03:31:40;;;;;;;7.80;6.10;;;;;;;11.10;92.66;99163.22;4945905;28;97894;-70
2024/02/12 03:34:08;;;;;;;8.32;5.35;;;;;;;10.77;93.86;99158.22;4947391;28;98850;-70
2024/02/12 03:36:34;;;;;;;8.60;5.97;;;;;;;11.03;93.39;99166.34;4947503;28;98311;-69
2024/02/12 03:39:05;;;;;;;9.43;6.05;;;;;;;11.14;92.41;99166.53;4946342;28;97169;-69
2024/02/12 03:41:32;;;;;;;7.07;5.65;;;;;;;11.23;92.35;99173.88;4946073;28;98526;-70
2024/02/12 03:43:58;;;;;;;7.50;5.40;;;;;;;11.34;91.70;99170.56;4939841;28;98868;-69
2024/02/12 03:46:31;;;;;;;6.22;5.60;;;;;;;11.43;91.03;99169.97;4948331;28;97468;-70
2024/02/12 04:00:16;;;;;;;8.57;6.13;;;;;;;11.34;91.32;99182.00;4921505;28;97347;-70
2024/02/12 04:02:42;;;;;;;9.65;6.28;;;;;;;10.96;93.01;99186.19;4946690;28;96745;-70
2024/02/12 04:05:09;;;;;;;8.48;6.53;;;;;;;11.31;92.39;99192.75;4944711;28;99047;-70
2024/02/12 04:07:38;;;;;;;9.77;7.03;;;;;;;11.03;93.61;99195.41;4948275;28;99245;-71
2024/02/12 04:10:06;;;;;;;11.85;7.20;;;;;;;10.92;94.19;99187.31;4949512;28;97298;-71
2024/02/12 04:12:33;;;;;;;12.80;7.03;;;;;;;11.25;93.08;99197.59;4948490;28;98750;-71
2024/02/12 04:15:00;;;;;;;13.48;7.80;;;;;;;11.22;93.23;99196.00;4951230;28;99149;-70
2024/02/12 04:17:28;;;;;;;11.43;7.63;;;;;;;11.43;92.73;99194.63;4949804;28;98927;-71
2024/02/12 04:19:54;;;;;;;11.98;8.75;;;;;;;11.41;92.29;99199.19;4947412;28;97369;-71
2024/02/12 04:22:21;;;;;;;13.60;9.63;;;;;;;11.49;92.13;99196.88;4941757;28;96913;-71
2024/02/12 04:24:49;;;;;;;11.68;8.73;;;;;;;11.58;91.84;99200.75;4945297;28;99837;-70
2024/02/12 04:27:15;;;;;;;14.52;9.75;;;;;;;11.48;92.60;99211.06;4946342;28;98783;-70
2024/02/12 04:29:42;;;;;;;14.48;9.70;;;;;;;11.61;91.93;99202.34;4944883;28;97445;-70
2024/02/12 04:32:11;;;;;;;12.63;8.98;;;;;;;11.30;93.10;99208.72;4946149;28;97297;-71
2024/02/12 04:34:38;;;;;;;12.48;9.38;;;;;;;11.27;94.24;99207.13;4943845;28;99741;-71
2024/02/12 04:37:06;;;;;;;16.45;10.38;;;;;;;11.57;93.05;99201.69;4946191;28;98987;-71
2024/02/12 04:39:32;;;;;;;13.43;9.77;;;;;;;10.99;95.78;99207.97;4939490;28;98003;-71
2024/02/12 04:42:00;;;;;;;14.55;9.68;;;;;;;11.24;95.49;99217.88;4947144;28;96976;-71
2024/02/12 04:44:27;;;;;;;14.75;9.60;;;;;;;11.52;93.79;99219.66;4945102;28;98954;-71
2024/02/12 04:46:53;;;;;;;14.25;9.90;;;;;;;11.77;92.64;99225.09;4946246;28;98823;-71
2024/02/12 04:49:20;;;;;;;17.23;9.93;;;;;;;11.61;92.87;99220.88;4946690;28;98595;-72
2024/02/12 04:51:46;;;;;;;13.88;10.02;;;;;;;11.11;95.00;99216.94;4948255;28;96993;-72
2024/02/12 04:54:14;;;;;;;14.75;10.20;;;;;;;11.41;95.32;99227.41;4946922;28;98928;-71
2024/02/12 04:56:41;;;;;;;13.05;9.45;;;;;;;11.40;94.45;99226.56;4948996;28;98372;-71
2024/02/12 04:59:12;;;;;;;13.48;8.95;;;;;;;11.49;93.50;99225.97;4945075;28;97159;-71
2024/02/12 05:01:39;;;;;;;16.90;10.30;;;;;;;11.30;94.50;99228.06;4946110;28;97201;-71
2024/02/12 05:04:05;;;;;;;15.57;9.82;;;;;;;10.79;97.71;99235.63;4941034;28;99454;-71
2024/02/12 05:06:32;;;;;;;14.10;9.10;;;;;;;10.79;97.35;99227.69;4948029;28;98162;-71
2024/02/12 05:08:59;;;;;;;15.98;9.32;;;;;;;10.98;97.22;99235.34;4943692;28;97404;-71
2024/02/12 05:11:26;;;;;;;14.45;8.90;;;;;;;11.21;96.10;99236.59;4948008;28;97206;-71
2024/02/12 05:13:54;;;;;;;12.98;8.85;;;;;;;11.53;93.24;99240.72;4946586;28;101114;-71
2024/02/12 05:16:29;;;;;;;16.73;10.75;;;;;;;11.72;92.72;99239.56;4942581;28;98758;-72
2024/02/12 05:24:24;;;;;;;15.70;9.65;;;;;;;11.37;93.78;99239.13;4942903;28;97217;-71
2024/02/12 05:26:51;;;;;;;15.13;9.65;;;;;;;11.40;93.33;99242.44;4946860;28;99090;-71
2024/02/12 05:29:17;;;;;;;19.17;10.70;;;;;;;11.45;93.54;99243.00;4947687;28;97418;-71
2024/02/12 05:31:45;;;;;;;16.05;10.13;;;;;;;11.64;91.86;99247.13;4942945;28;96828;-71
2024/02/12 05:34:11;;;;;;;14.65;10.02;;;;;;;11.76;91.21;99252.50;4947023;28;101805;-70
2024/02/12 05:36:38;;;;;;;15.73;9.73;;;;;;;11.87;90.39;99249.19;4942705;28;99846;-70
2024/02/12 05:39:04;;;;;;;15.60;9.82;;;;;;;11.85;90.46;99249.28;4946618;28;97121;-70
2024/02/12 05:41:30;;;;;;;15.38;10.35;;;;;;;12.08;89.39;99252.25;4942208;28;97018;-71
2024/02/12 05:43:57;;;;;;;15.65;10.10;;;;;;;11.88;90.26;99248.25;4943723;28;99157;-70
2024/02/12 05:46:23;;;;;;;15.73;10.50;;;;;;;11.63;92.01;99256.00;4944154;28;97761;-70
2024/02/12 05:48:51;;;;;;;16.65;10.07;;;;;;;11.71;92.37;99262.50;4948318;28;96798;-70
2024/02/12 05:51:17;;;;;;;21.58;12.13;;;;;;;11.65;92.01;99262.06;4949208;28;96996;-70
2024/02/12 05:53:44;;;;;;;17.55;11.18;;;;;;;11.55;92.43;99270.56;4941865;28;99016;-72
2024/02/12 05:56:10;;;;;;;16.52;10.85;;;;;;;11.85;92.09;99275.75;4945869;28;98103;-70
2024/02/12 05:58:37;;;;;;;19.70;11.57;;;;;;;12.11;90.53;99275.88;4948242;28;97534;-70
2024/02/12 06:01:04;;;;;;;18.65;11.23;;;;;;;12.11;89.96;99282.03;4947668;28;100401;-70
2024/02/12 06:03:30;;;;;;;19.63;11.30;;;;;;;11.64;91.60;99276.22;4946743;28;99141;-70
2024/02/12 06:06:02;;;;;;;21.25;11.77;;;;;;;11.89;92.78;99294.91;4948307;28;101140;-70
2024/02/12 06:08:29;;;;;;;20.13;12.30;;;;;;;11.83;92.56;99290.03;4948836;28;96945;-71
2024/02/12 06:10:55;;;;;;;23.30;13.40;;;;;;;11.80;92.54;99292.88;4946219;28;99197;-71
2024/02/12 06:13:21;;;;;;;22.20;13.27;;;;;;;11.95;92.19;99299.81;4944974;28;99238;-71
2024/02/12 06:15:48;;;;;;;27.02;13.52;;;;;;;11.66;93.75;99300.78;4946701;28;98824;-72
2024/02/12 06:18:15;;;;;;;26.63;13.52;;;;;;;11.49;93.81;99300.03;4946307;28;97775;-71
2024/02/12 06:20:42;;;;;;;21.67;12.27;;;;;;;11.22;96.41;99304.41;4950095;28;97032;-70
2024/02/12 06:23:10;;;;;;;23.38;13.20;;;;;;;11.37;95.87;99303.44;4945163;28;98341;-70
2024/02/12 06:25:37;;;;;;;20.98;11.88;;;;;;;11.44;94.84;99304.78;4946092;28;100745;-71
2024/02/12 06:28:04;;;;;;;25.77;14.05;;;;;;;11.42;95.19;99311.13;4940934;28;96922;-72
2024/02/12 06:30:31;;;;;;;20.17;11.27;;;;;;;11.17;96.12;99314.38;4945255;28;98997;-70
2024/02/12 06:32:58;;;;;;;21.80;11.88;;;;;;;11.27;95.60;99314.69;4944133;28;98310;-71
2024/02/12 06:35:25;;;;;;;23.10;12.02;;;;;;;11.11;96.15;99315.59;4946890;28;97101;-71
2024/02/12 06:37:51;;;;;;;20.27;11.85;;;;;;;11.13;95.72;99321.66;4944990;28;97593;-71
2024/02/12 06:40:20;;;;;;;20.00;9.63;;;;;;;10.94;97.65;99320.22;4947359;28;96909;-72
2024/02/12 06:42:47;;;;;;;21.48;11.45;;;;;;;11.13;97.02;99326.94;4942580;28;98991;-72
2024/02/12 06:45:15;;;;;;;22.90;11.90;;;;;;;10.94;97.32;99326.34;4945037;28;98893;-71
2024/02/12 06:47:43;;;;;;;23.67;11.65;;;;;;;11.04;96.72;99334.56;4945922;28;97914;-71
2024/02/12 06:50:11;;;;;;;20.70;11.63;;;;;;;11.25;96.06;99343.84;4945624;28;97155;-72
2024/02/12 06:52:38;;;;;;;16.30;8.82;;;;;;;10.93;96.06;99345.78;4947260;28;100174;-72
2024/02/12 06:55:09;;;;;;;20.42;11.52;;;;;;;11.07;96.06;99345.81;4946384;28;98951;-71
2024/02/12 06:57:36;;;;;;;23.67;10.23;;;;;;;10.92;96.14;99353.78;4946038;28;96790;-71
2024/02/12 07:00:04;;;;;;;19.92;11.07;;;;;;;10.76;98.00;99349.41;4944805;28;97690;-70
2024/02/12 07:02:32;;;;;;;21.55;11.18;;;;;;;10.94;97.54;99366.00;4941215;28;99018;-70
2024/02/12 07:04:59;;;;;;;20.20;10.85;;;;;;;11.08;97.11;99362.53;4948294;28;101528;-71
2024/02/12 07:07:25;;;;;;;20.92;10.70;;;;;;;10.91;96.74;99370.59;4949873;28;98606;-70
2024/02/12 07:09:52;;;;;;;21.48;10.82;;;;;;;10.95;97.02;99377.41;4952098;28;97296;-71
2024/02/12 07:12:18;;;;;;;18.75;10.15;;;;;;;11.11;96.18;99378.19;4948263;28;98232;-70
2024/02/12 07:14:45;;;;;;;20.85;11.57;;;;;;;11.01;95.92;99380.56;4951307;28;99299;-71
2024/02/12 07:17:12;;;;;;;22.08;10.95;;;;;;;10.40;100.00;99388.50;4945141;28;96938;-71
2024/02/12 07:19:38;;;;;;;20.58;10.23;;;;;;;10.54;99.13;99401.78;4938515;28;96986;-71
2024/02/12 07:22:05;;;;;;;20.15;10.80;;;;;;;10.41;99.59;99392.84;4928337;28;99307;-71
2024/02/12 07:24:32;;;;;;;20.15;10.27;;;;;;;10.68;98.13;99396.56;4932226;28;100472;-70
2024/02/12 07:26:58;;;;;;;18.42;11.07;;;;;;;10.67;98.72;99408.06;4934674;28;97399;-71
2024/02/12 07:29:25;;;;;;;21.92;10.02;;;;;;;10.76;97.60;99407.53;4942469;28;98359;-74
2024/02/12 07:31:53;;;;;;;15.93;9.88;;;;;;;11.15;96.67;99408.81;4946796;28;99282;-73
2024/02/12 07:34:19;;;;;;;25.17;10.23;;;;;;;11.07;95.25;99411.91;4945176;28;99883;-75
2024/02/12 07:36:46;;;;;;;21.42;11.10;;;;;;;11.01;96.04;99419.34;4947930;28;97443;-73
2024/02/12 07:39:12;;;;;;;17.70;10.05;;;;;;;11.31;94.44;99420.19;4941411;28;96858;-73
2024/02/12 07:41:39;;;;;;;20.30;9.65;;;;;;;11.36;93.44;99420.75;4946451;28;98975;-73
2024/02/12 07:44:06;;;;;;;19.45;9.00;;;;;;;10.90;95.80;99419.09;4947795;28;98811;-73
2024/02/12 07:46:32;;;;;;;21.02;10.20;;;;;;;11.10;95.30;99432.00;4948753;28;99493;-73
2024/02/12 07:49:00;;;;;;;20.60;10.43;;;;;;;10.82;97.18;99429.28;4944613;28;97655;-73
2024/02/12 07:51:27;;;;;;;19.65;10.07;;;;;;;11.01;95.31;99433.41;4945068;28;101450;-73
2024/02/12 07:53:54;;;;;;;22.27;10.55;;;;;;;11.23;94.87;99429.50;4948147;28;100351;-73
2024/02/12 07:56:20;;;;;;;16.13;10.00;;;;;;;11.00;95.40;99441.44;4950565;28;96847;-73
2024/02/12 07:58:46;;;;;;;16.63;9.60;;;;;;;11.15;95.37;99445.84;4943408;28;101212;-73
2024/02/12 08:01:13;;;;;;;19.63;9.95;;;;;;;11.43;93.56;99447.69;4944752;28;99537;-71
2024/02/12 08:03:40;;;;;;;21.38;10.63;;;;;;;11.53;91.84;99452.34;4943946;28;100579;-71
2024/02/12 08:06:08;;;;;;;18.90;10.20;;;;;;;11.29;93.42;99450.31;4944447;28;97695;-71
2024/02/12 08:08:35;;;;;;;23.25;10.70;;;;;;;11.34;93.71;99461.47;4946582;28;96891;-72
2024/02/12 08:11:01;;;;;;;18.00;10.00;;;;;;;11.32;93.37;99463.34;4945030;28;99360;-71
2024/02/12 08:13:29;;;;;;;19.30;9.98;;;;;;;11.02;94.42;99472.13;4946523;28;98610;-71
2024/02/12 08:15:56;;;;;;;18.17;10.18;;;;;;;11.27;94.07;99474.19;4937509;28;96826;-72
2024/02/12 08:18:22;;;;;;;18.35;8.70;;;;;;;11.33;93.86;99476.47;4943520;28;97925;-73
2024/02/12 08:20:49;;;;;;;15.88;9.55;;;;;;;11.42;92.48;99481.22;4947811;28;99022;-72
2024/02/12 08:23:16;;;;;;;18.73;10.52;;;;;;;11.27;93.17;99479.50;4945897;28;99097;-71
2024/02/12 08:25:43;;;;;;;19.65;10.23;;;;;;;11.16;94.48;99484.53;4946877;28;97269;-72
2024/02/12 08:28:10;;;;;;;19.13;10.38;;;;;;;11.26;93.69;99491.00;4945840;28;98926;-72
2024/02/12 08:30:36;;;;;;;21.88;10.25;;;;;;;11.50;92.75;99489.56;4939589;28;98977;-72
2024/02/12 08:33:03;;;;;;;20.48;10.45;;;;;;;11.67;91.89;99490.38;4944731;28;99529;-72
2024/02/12 08:35:30;;;;;;;19.10;10.15;;;;;;;11.31;93.13;99496.00;4940918;28;98882;-72
2024/02/12 08:37:56;;;;;;;18.55;9.35;;;;;;;11.26;93.47;99500.72;4945230;28;97724;-70
2024/02/12 08:40:26;;;;;;;18.98;9.70;;;;;;;11.63;92.28;99505.56;4945370;28;99393;-70
2024/02/12 08:42:53;;;;;;;22.38;10.20;;;;;;;11.41;92.43;99511.28;4946570;28;98692;-70
2024/02/12 08:45:20;;;;;;;17.75;10.20;;;;;;;11.37;93.04;99511.53;4945560;28;97430;-70
2024/02/12 08:47:47;;;;;;;16.80;9.52;;;;;;;11.61;93.02;99517.19;4944454;28;98911;-71
2024/02/12 08:50:15;;;;;;;20.77;9.50;;;;;;;11.64;93.04;99515.19;4938079;28;99463;-70
2024/02/12 08:52:41;;;;;;;17.15;9.65;;;;;;;11.48;94.06;99522.34;4946541;28;99102;-69
2024/02/12 08:55:10;;;;;;;19.73;9.63;;;;;;;11.56;92.51;99528.03;4945831;28;96962;-72
2024/02/12 08:57:39;;;;;;;17.98;8.65;;;;;;;11.50;93.32;99523.94;4942645;28;96920;-72
2024/02/12 09:00:07;;;;;;;21.98;10.55;;;;;;;11.42;94.06;99538.59;4943781;28;99273;-72
2024/02/12 09:02:34;;;;;;;19.02;9.13;;;;;;;11.24;95.28;99531.69;4946006;28;99139;-72
2024/02/12 09:05:01;;;;;;;17.00;8.43;;;;;;;11.22;95.02;99536.22;4942705;28;96814;-71
2024/02/12 09:07:28;;;;;;;21.33;9.05;;;;;;;11.49;94.55;99538.13;4946527;28;98467;-72
2024/02/12 09:09:54;;;;;;;17.20;8.88;;;;;;;11.28;94.14;99544.66;4940374;28;99428;-71
2024/02/12 09:12:21;;;;;;;18.70;9.50;;;;;;;11.52;95.36;99545.88;4946361;28;99610;-72
2024/02/12 09:14:48;;;;;;;22.33;10.15;;;;;;;11.71;93.38;99550.94;4943406;28;98263;-71
2024/02/12 09:17:15;;;;;;;20.50;8.38;;;;;;;11.24;94.29;99550.19;4944032;28;97926;-72
2024/02/12 09:19:42;;;;;;;14.55;7.88;;;;;;;11.57;93.67;99551.75;4945254;28;99127;-72
2024/02/12 09:22:09;;;;;;;15.43;7.00;;;;;;;11.33;93.59;99558.47;4947206;28;98904;-72
2024/02/12 09:24:40;;;;;;;18.35;9.07;;;;;;;11.27;94.83;99565.91;4946878;28;96720;-71
2024/02/12 09:27:07;;;;;;;12.45;7.32;;;;;;;11.73;92.72;99570.25;4944354;28;96882;-73
2024/02/12 09:29:34;;;;;;;18.10;8.25;;;;;;;12.01;91.39;99574.78;4945154;28;97582;-72
2024/02/12 09:32:02;;;;;;;11.80;7.30;;;;;;;11.78;92.47;99583.22;4948779;28;99201;-71
2024/02/12 09:34:28;;;;;;;15.63;7.68;;;;;;;11.53;93.65;99589.91;4946126;28;97292;-71
2024/02/12 09:36:55;;;;;;;15.65;7.05;;;;;;;11.32;95.25;99585.00;4944961;28;97627;-72
2024/02/12 09:39:21;;;;;;;15.63;7.20;;;;;;;11.84;93.45;99589.00;4944651;28;102369;-72
2024/02/12 09:41:48;;;;;;;9.63;6.78;;;;;;;11.60;93.76;99595.72;4945882;28;98871;-71
2024/02/12 09:44:16;;;;;;;13.02;6.65;;;;;;;11.56;93.18;99594.16;4942469;28;97235;-72
2024/02/12 09:46:46;;;;;;;9.32;5.65;;;;;;;11.43;94.08;99594.00;4943630;28;97614;-71
2024/02/12 09:49:16;;;;;;;10.75;6.30;;;;;;;11.55;94.49;99595.94;4941847;28;97988;-70
2024/02/12 09:51:46;;;;;;;12.73;6.40;;;;;;;11.88;93.22;99600.28;4941893;28;99225;-71
2024/02/12 09:54:13;;;;;;;10.43;5.70;;;;;;;11.66;93.32;99607.72;4934982;28;97551;-71
2024/02/12 09:56:42;;;;;;;13.27;5.82;;;;;;;11.57;94.47;99609.09;4942196;28;97243;-71
2024/02/12 09:59:08;;;;;;;9.98;5.53;;;;;;;11.52;94.10;99608.53;4943874;28;98971;-72
2024/02/12 10:01:36;;;;;;;11.38;5.20;;;;;;;11.65;94.78;99603.38;4944625;28;98872;-70
2024/02/12 10:04:03;;;;;;;9.52;5.28;;;;;;;11.43;94.32;99609.03;4942543;28;98195;-70
2024/02/12 10:06:32;;;;;;;9.90;5.63;;;;;;;11.56;94.95;99607.38;4947572;28;98656;-70
2024/02/12 10:09:05;;;;;;;9.52;5.97;;;;;;;12.05;92.09;99605.44;4945735;28;100685;-71
2024/02/12 10:11:32;;;;;;;7.60;5.03;;;;;;;12.30;91.34;99603.00;4946091;28;99080;-70
2024/02/12 10:14:00;;;;;;;7.95;5.10;;;;;;;12.25;89.40;99605.09;4937892;28;97711;-72
2024/02/12 10:16:27;;;;;;;9.95;5.68;;;;;;;12.31;89.03;99604.72;4945686;28;97095;-72
2024/02/12 10:19:03;;;;;;;9.02;5.55;;;;;;;11.93;91.19;99612.31;4945483;28;101139;-72
2024/02/12 10:21:30;;;;;;;10.57;5.35;;;;;;;12.19;90.89;99609.91;4946757;28;97609;-70
2024/02/12 10:24:01;;;;;;;8.60;5.03;;;;;;;11.87;91.81;99622.41;4945148;28;96912;-71
2024/02/12 10:26:27;;;;;;;8.43;5.40;;;;;;;12.15;90.85;99622.47;4946308;28;96840;-70
2024/02/12 10:28:55;;;;;;;8.15;5.47;;;;;;;12.61;88.57;99619.66;4945947;28;99087;-71
2024/02/12 10:31:23;;;;;;;8.98;5.15;;;;;;;13.01;86.04;99621.56;4943604;28;98818;-71
2024/02/12 10:33:51;;;;;;;10.25;5.57;;;;;;;13.33;84.74;99626.63;4939560;28;96743;-72
2024/02/12 10:36:19;;;;;;;9.15;5.07;;;;;;;13.32;84.09;99627.59;4944754;28;96886;-71
2024/02/12 10:38:50;;;;;;;8.98;5.22;;;;;;;13.00;84.61;99629.59;4949153;28;99004;-72
2024/02/12 10:41:29;;;;;;;8.98;5.88;;;;;;;13.59;82.46;99640.88;4949211;28;99276;-71
2024/02/12 10:43:58;;;;;;;8.63;4.80;;;;;;;12.95;83.95;99632.53;4943487;28;99099;-72
2024/02/12 10:46:25;;;;;;;6.20;4.15;;;;;;;12.45;85.77;99642.75;4948544;28;97503;-71
2024/02/12 10:48:52;;;;;;;8.10;4.80;;;;;;;11.85;87.85;99634.88;4946109;28;99250;-71
2024/02/12 10:51:20;;;;;;;7.15;5.15;;;;;;;12.34;86.19;99631.00;4941224;28;99370;-71
2024/02/12 10:53:47;;;;;;;8.35;4.85;;;;;;;12.52;84.17;99626.41;4940709;28;98291;-71
2024/02/12 10:56:14;;;;;;;10.77;5.40;;;;;;;12.80;82.95;99637.97;4948321;28;97342;-72
2024/02/12 10:58:43;;;;;;;10.45;5.72;;;;;;;12.71;82.82;99636.72;4947464;28;99390;-71
2024/02/12 11:01:12;;;;;;;8.10;5.07;;;;;;;12.33;84.43;99644.38;4945792;28;98958;-71
2024/02/12 11:03:40;;;;;;;9.93;6.10;;;;;;;12.62;84.58;99634.63;4945934;28;97733;-71
2024/02/12 11:06:10;;;;;;;14.07;6.45;;;;;;;12.77;83.80;99639.84;4949297;28;97285;-71
2024/02/12 11:08:39;;;;;;;9.55;6.05;;;;;;;12.95;82.81;99647.59;4945107;28;100589;-70
2024/02/12 11:11:14;;;;;;;17.25;9.75;;;;;;;13.12;81.90;99650.94;4945758;28;98812;-71
2024/02/12 11:13:42;;;;;;;11.48;6.82;;;;;;;13.38;80.77;99659.06;4941837;28;96834;-72
2024/02/12 11:16:13;;;;;;;11.07;6.57;;;;;;;13.19;78.70;99661.16;4947971;28;96949;-72
2024/02/12 11:18:39;;;;;;;15.15;6.93;;;;;;;12.95;79.46;99663.50;4942747;28;97814;-71
2024/02/12 11:21:08;;;;;;;9.65;6.53;;;;;;;12.87;79.66;99666.63;4939827;28;97921;-72
2024/02/12 11:23:35;;;;;;;13.32;7.72;;;;;;;13.13;78.25;99665.03;4927630;28;98665;-71
2024/02/12 11:26:02;;;;;;;22.30;10.20;;;;;;;13.52;76.99;99667.81;4935351;28;97587;-71
2024/02/12 11:28:32;;;;;;;13.57;7.43;;;;;;;13.43;76.29;99670.22;4932807;28;101028;-72
2024/02/12 11:31:00;;;;;;;11.65;7.15;;;;;;;13.56;76.52;99668.47;4933136;28;99296;-72
2024/02/12 11:33:31;;;;;;;12.80;7.22;;;;;;;13.68;75.22;99670.31;4944141;28;97419;-71
2024/02/12 11:36:07;;;;;;;13.32;7.82;;;;;;;13.86;74.99;99685.03;4948442;28;97569;-71
2024/02/12 11:38:35;;;;;;;18.85;8.63;;;;;;;13.99;73.29;99677.13;4944038;28;99453;-71
2024/02/12 11:41:01;;;;;;;12.73;6.68;;;;;;;14.27;72.13;99684.09;4948645;28;98870;-72
2024/02/12 11:43:29;;;;;;;11.98;6.85;;;;;;;14.51;70.69;99685.13;4943474;28;97730;-71